Terminal Aerodrome Forecast
Issued by NWS Sterling, VA

Current Version | Previous Version | Text Only | Print | Product List | Glossary Off
Versions: 1 2 3 4 5 6 7 8 9 10 11 12 13 14 15 16 17 18 19 20 21 22 23 24 25 26 27 28 29 30 31

000
FTUS41 KLWX 022340
TAFDCA
TAF
KDCA 022340Z 0300/0324 03010KT P6SM OVC012
      TEMPO 0300/0303 5SM -RA BR OVC008
     FM030300 04009KT P6SM OVC008
     FM030800 05009KT 5SM -RA BR BKN004 OVC007
     FM031300 05007KT P6SM OVC009
     FM031800 03007KT P6SM -RA OVC015=

USA.gov is the U.S. government's official web portal to all federal, state and local government web resources and services.